Time;durP1;ratioP1;P1;durP2;ratioP2;P2;SDS_P1;SDS_P2;PMS_P1;PMS_P2;Temp;Humidity;BMP_temperature;BMP_pressure;BME280_temperature;BME280_humidity;BME280_pressure;Samples;Min_cycle;Max_cycle;Signal;HPM_P1;HPM_P2
2021/04/27 00:01:25;;;;;;;7.43;3.58;;;5.70;99.90;;;;;;4955911;28;20077;-77
2021/04/27 00:03:51;;;;;;;5.57;3.28;;;5.60;99.90;;;;;;4979303;28;20039;-76
2021/04/27 00:06:17;;;;;;;5.78;3.03;;;5.60;99.90;;;;;;4982740;28;20331;-76
2021/04/27 00:08:42;;;;;;;6.03;3.55;;;5.60;99.90;;;;;;5028005;28;20077;-78
2021/04/27 00:11:09;;;;;;;6.10;4.07;;;5.60;99.90;;;;;;5022923;28;20023;-77
2021/04/27 00:13:35;;;;;;;10.85;4.10;;;5.60;99.90;;;;;;5015828;28;20024;-78
2021/04/27 00:16:02;;;;;;;10.93;4.25;;;5.60;99.90;;;;;;5000185;28;20039;-74
2021/04/27 00:18:28;;;;;;;6.65;4.20;;;5.60;99.90;;;;;;4959205;28;20442;-76
2021/04/27 00:20:54;;;;;;;7.50;3.95;;;5.60;99.90;;;;;;4948801;28;20020;-76
2021/04/27 00:23:19;;;;;;;7.60;4.70;;;5.50;99.90;;;;;;4973535;28;20016;-78
2021/04/27 00:25:45;;;;;;;9.27;4.70;;;5.50;99.90;;;;;;4976735;28;20051;-78
2021/04/27 00:28:10;;;;;;;6.70;4.55;;;5.50;99.90;;;;;;4968865;28;20050;-75
2021/04/27 00:30:36;;;;;;;12.18;4.80;;;5.50;99.90;;;;;;4977409;28;20061;-77
2021/04/27 00:33:02;;;;;;;15.30;4.90;;;5.50;99.90;;;;;;4975151;28;20068;-75
2021/04/27 00:35:31;;;;;;;11.05;5.47;;;5.50;99.90;;;;;;4988352;28;20092;-78
2021/04/27 00:37:57;;;;;;;10.88;5.43;;;5.50;99.90;;;;;;4988646;28;20437;-78
2021/04/27 00:40:27;;;;;;;6.97;4.45;;;5.50;99.90;;;;;;4934972;28;20020;-77
2021/04/27 00:42:53;;;;;;;11.45;6.00;;;5.40;99.90;;;;;;4966971;28;20412;-78
2021/04/27 00:45:22;;;;;;;7.78;4.38;;;5.40;99.90;;;;;;4954295;29;20062;-77
2021/04/27 00:47:48;;;;;;;7.47;4.85;;;5.40;99.90;;;;;;4982126;28;20026;-78
2021/04/27 00:50:18;;;;;;;9.82;4.20;;;5.40;99.90;;;;;;4939781;28;20099;-77
2021/04/27 00:52:46;;;;;;;9.05;4.38;;;5.40;99.90;;;;;;4952665;28;20039;-78
2021/04/27 00:55:13;;;;;;;7.43;4.45;;;5.40;99.90;;;;;;5001011;28;20028;-81
2021/04/27 00:57:39;;;;;;;6.78;3.75;;;5.50;99.90;;;;;;4955645;28;20297;-77
2021/04/27 01:00:18;;;;;;;5.45;3.67;;;5.50;99.90;;;;;;4981768;28;20433;-77
2021/04/27 01:02:45;;;;;;;8.35;4.25;;;5.40;99.90;;;;;;4951735;28;20095;-76
2021/04/27 01:05:16;;;;;;;13.73;4.40;;;5.40;99.90;;;;;;4956453;28;20027;-76
2021/04/27 01:08:11;;;;;;;5.88;3.95;;;5.30;99.90;;;;;;4948527;28;20024;-78
2021/04/27 01:10:48;;;;;;;7.70;3.78;;;5.40;99.90;;;;;;4943146;28;20235;-77
2021/04/27 01:13:37;;;;;;;6.75;3.67;;;5.30;99.90;;;;;;4986049;28;20028;-77
2021/04/27 01:16:03;;;;;;;5.88;3.60;;;5.20;99.90;;;;;;4949869;28;20031;-77
2021/04/27 01:18:32;;;;;;;6.22;4.22;;;5.10;99.90;;;;;;4953976;28;20118;-77
2021/04/27 01:21:01;;;;;;;5.45;3.70;;;5.10;99.90;;;;;;4953588;28;20114;-75
2021/04/27 01:23:45;;;;;;;6.68;4.20;;;5.10;99.90;;;;;;4960503;28;20031;-77
2021/04/27 01:26:21;;;;;;;5.72;3.92;;;5.10;99.90;;;;;;4963010;28;20030;-78
2021/04/27 01:28:53;;;;;;;7.43;4.20;;;5.10;99.90;;;;;;4964461;28;20106;-76
2021/04/27 01:31:20;;;;;;;7.60;3.90;;;5.10;99.90;;;;;;4977554;28;20098;-77
2021/04/27 01:33:46;;;;;;;10.88;4.63;;;5.00;99.90;;;;;;4962561;28;20103;-77
2021/04/27 01:36:12;;;;;;;5.88;3.80;;;4.90;99.90;;;;;;4953822;28;20531;-77
2021/04/27 01:38:45;;;;;;;5.43;3.85;;;5.00;99.90;;;;;;4948720;28;20034;-79
2021/04/27 01:41:11;;;;;;;8.65;4.07;;;5.00;99.90;;;;;;4959954;28;20024;-76
2021/04/27 01:43:37;;;;;;;5.78;3.80;;;4.90;99.90;;;;;;4961026;28;20030;-77
2021/04/27 01:46:06;;;;;;;9.63;4.20;;;4.90;99.90;;;;;;4961766;28;20031;-78
2021/04/27 01:48:33;;;;;;;8.55;4.07;;;4.90;99.90;;;;;;4996977;28;20699;-81
2021/04/27 01:51:00;;;;;;;7.43;4.60;;;4.80;99.90;;;;;;4961507;28;20070;-78
2021/04/27 01:53:25;;;;;;;7.53;3.55;;;4.80;99.90;;;;;;4959494;28;20631;-78
2021/04/27 01:55:51;;;;;;;9.85;3.88;;;4.80;99.90;;;;;;4943688;28;20034;-77
2021/04/27 01:58:18;;;;;;;5.95;3.85;;;4.80;99.90;;;;;;4952083;29;20028;-78
2021/04/27 02:00:44;;;;;;;7.38;3.80;;;4.80;99.90;;;;;;4947351;29;20063;-75
2021/04/27 02:03:10;;;;;;;9.32;4.63;;;4.80;99.90;;;;;;4963500;28;20255;-76
2021/04/27 02:05:37;;;;;;;7.95;4.78;;;4.70;99.90;;;;;;4959697;28;20543;-75
2021/04/27 02:08:03;;;;;;;10.70;4.10;;;4.70;99.90;;;;;;4952853;28;20035;-78
2021/04/27 02:10:29;;;;;;;7.95;3.72;;;4.70;99.90;;;;;;5035327;28;20031;-75
2021/04/27 02:13:05;;;;;;;4.25;3.70;;;4.80;99.90;;;;;;5033810;28;20039;-76
2021/04/27 02:15:31;;;;;;;8.63;4.15;;;4.70;99.90;;;;;;4947790;28;20042;-77
2021/04/27 02:18:01;;;;;;;11.60;3.95;;;4.60;99.90;;;;;;4959376;28;20019;-78
2021/04/27 02:20:33;;;;;;;9.02;4.47;;;4.60;99.90;;;;;;4959893;28;20023;-76
2021/04/27 02:23:01;;;;;;;7.13;3.90;;;4.60;99.90;;;;;;4951789;29;20532;-78
2021/04/27 02:25:30;;;;;;;6.28;3.67;;;4.60;99.90;;;;;;4986424;28;20021;-76
2021/04/27 02:27:56;;;;;;;8.68;4.63;;;4.60;99.90;;;;;;5014455;28;20027;-76
2021/04/27 02:30:25;;;;;;;6.15;4.28;;;4.50;99.90;;;;;;5037351;28;20529;-76
2021/04/27 02:32:52;;;;;;;9.02;4.38;;;4.50;99.90;;;;;;5001346;28;20002;-77
2021/04/27 02:35:20;;;;;;;7.53;4.05;;;4.50;99.90;;;;;;4999754;28;20360;-76
2021/04/27 02:37:49;;;;;;;8.95;4.43;;;4.40;99.90;;;;;;4958385;28;20024;-77
2021/04/27 02:40:25;;;;;;;7.97;4.43;;;4.50;99.90;;;;;;4997213;28;20085;-77
2021/04/27 02:42:53;;;;;;;6.60;4.22;;;4.50;99.90;;;;;;5026099;28;20129;-79
2021/04/27 02:45:19;;;;;;;10.13;4.50;;;4.50;99.90;;;;;;4964401;28;20050;-77
2021/04/27 02:47:45;;;;;;;13.48;4.57;;;4.50;99.90;;;;;;4955624;28;20036;-77
2021/04/27 02:50:13;;;;;;;8.43;4.18;;;4.40;99.90;;;;;;4961254;28;20031;-77
2021/04/27 02:52:40;;;;;;;7.47;4.72;;;4.40;99.90;;;;;;4948938;28;20478;-77
2021/04/27 02:55:08;;;;;;;7.78;4.30;;;4.40;99.90;;;;;;4949712;28;20038;-77
2021/04/27 02:57:35;;;;;;;7.13;4.00;;;4.40;99.90;;;;;;4952915;28;20461;-75
2021/04/27 03:00:04;;;;;;;9.93;4.45;;;4.40;99.90;;;;;;4957864;28;20491;-77
2021/04/27 03:02:29;;;;;;;6.68;4.07;;;4.40;99.90;;;;;;4962786;28;20027;-76
2021/04/27 03:04:55;;;;;;;7.90;4.55;;;4.50;99.90;;;;;;4962119;28;20046;-76
2021/04/27 03:07:22;;;;;;;5.85;4.55;;;4.40;99.90;;;;;;4973351;28;20020;-77
2021/04/27 03:09:47;;;;;;;5.35;4.40;;;4.40;99.90;;;;;;4970542;28;20027;-76
2021/04/27 03:12:13;;;;;;;13.68;4.47;;;4.40;99.90;;;;;;4971119;28;20019;-76
2021/04/27 03:14:38;;;;;;;6.30;3.95;;;4.30;99.90;;;;;;5039012;28;20037;-75
2021/04/27 03:17:04;;;;;;;5.68;4.15;;;4.30;99.90;;;;;;4944326;28;20687;-77
2021/04/27 03:19:29;;;;;;;11.27;4.45;;;4.30;99.90;;;;;;4958946;28;20019;-78
2021/04/27 03:21:57;;;;;;;7.93;5.10;;;4.30;99.90;;;;;;4957137;28;20027;-76
2021/04/27 03:24:22;;;;;;;7.65;4.47;;;4.30;99.90;;;;;;4956758;28;20046;-76
2021/04/27 03:26:48;;;;;;;7.05;4.40;;;4.20;99.90;;;;;;4940819;28;20433;-77
2021/04/27 03:29:14;;;;;;;9.05;4.68;;;4.20;99.90;;;;;;4971413;28;20041;-75
2021/04/27 03:31:40;;;;;;;10.77;5.07;;;4.30;99.90;;;;;;4978437;28;20027;-76
2021/04/27 03:34:07;;;;;;;11.60;4.90;;;4.20;99.90;;;;;;5028724;28;20026;-75
2021/04/27 03:36:33;;;;;;;7.03;4.95;;;4.20;99.90;;;;;;4972762;28;20082;-74
2021/04/27 03:38:58;;;;;;;8.35;4.97;;;4.10;99.90;;;;;;4953695;28;20008;-77
2021/04/27 03:41:24;;;;;;;7.90;4.78;;;4.20;99.90;;;;;;4961470;28;20024;-78
2021/04/27 03:43:50;;;;;;;6.97;4.40;;;4.10;99.90;;;;;;4967370;28;20029;-76
2021/04/27 03:46:16;;;;;;;5.95;4.07;;;4.10;99.90;;;;;;4965729;28;20012;-77
2021/04/27 03:48:42;;;;;;;8.40;4.40;;;4.10;99.90;;;;;;4962673;28;20127;-76
2021/04/27 03:51:08;;;;;;;11.10;4.85;;;4.20;99.90;;;;;;4956094;28;20078;-74
2021/04/27 03:53:33;;;;;;;10.95;4.85;;;4.20;99.90;;;;;;4954421;28;20119;-78
2021/04/27 03:56:00;;;;;;;12.18;4.60;;;4.30;99.90;;;;;;4937256;28;20087;-76
2021/04/27 03:58:26;;;;;;;7.38;5.18;;;4.30;99.90;;;;;;4946683;28;20511;-78
2021/04/27 04:00:52;;;;;;;7.38;5.13;;;4.20;99.90;;;;;;4956942;28;20015;-75
2021/04/27 04:03:17;;;;;;;10.75;4.97;;;4.10;99.90;;;;;;4941741;28;20057;-76
2021/04/27 04:05:43;;;;;;;9.18;4.97;;;4.10;99.90;;;;;;4940712;28;20028;-77
2021/04/27 04:08:09;;;;;;;8.98;5.35;;;4.20;99.90;;;;;;4947561;28;20056;-77
2021/04/27 04:10:35;;;;;;;6.07;4.88;;;4.20;99.90;;;;;;4947280;28;20035;-77
2021/04/27 04:13:01;;;;;;;13.63;4.70;;;4.20;99.90;;;;;;4955003;28;20054;-77
2021/04/27 04:15:27;;;;;;;7.97;4.75;;;4.20;99.90;;;;;;4955208;28;20651;-79
2021/04/27 04:17:52;;;;;;;7.78;5.20;;;4.10;99.90;;;;;;4957057;28;20050;-76
2021/04/27 04:20:22;;;;;;;8.52;5.00;;;4.00;99.90;;;;;;4960685;28;20019;-75
2021/04/27 04:22:49;;;;;;;8.30;4.85;;;4.00;99.90;;;;;;4962615;28;20271;-77
2021/04/27 04:25:16;;;;;;;14.00;4.90;;;4.00;99.90;;;;;;5007308;28;20020;-77
2021/04/27 04:27:43;;;;;;;11.57;5.50;;;4.00;99.90;;;;;;4956987;28;20113;-77
2021/04/27 04:30:20;;;;;;;5.78;4.80;;;4.00;99.90;;;;;;4972458;28;20302;-76
2021/04/27 04:32:47;;;;;;;9.73;4.68;;;4.10;99.90;;;;;;4968022;28;20351;-77
2021/04/27 04:35:15;;;;;;;8.55;5.07;;;4.10;99.90;;;;;;4963158;28;21059;-76
2021/04/27 04:37:41;;;;;;;8.13;5.20;;;4.10;99.90;;;;;;4972360;28;20038;-77
2021/04/27 04:40:09;;;;;;;8.50;5.20;;;4.10;99.90;;;;;;5008604;28;20032;-76
2021/04/27 04:42:36;;;;;;;7.40;4.60;;;4.00;99.90;;;;;;4966720;28;20024;-76
2021/04/27 04:45:04;;;;;;;11.48;4.75;;;4.10;99.90;;;;;;4956817;29;20036;-76
2021/04/27 04:47:30;;;;;;;8.90;4.82;;;4.10;99.90;;;;;;4967431;28;20085;-75
2021/04/27 04:49:55;;;;;;;8.63;5.18;;;4.10;99.90;;;;;;4965467;28;20019;-77
2021/04/27 04:52:21;;;;;;;6.88;4.65;;;4.20;99.90;;;;;;4948630;28;20019;-75
2021/04/27 04:54:46;;;;;;;7.75;4.22;;;4.10;99.90;;;;;;4958872;28;20612;-76
2021/04/27 04:57:12;;;;;;;13.57;5.28;;;4.10;99.90;;;;;;4967534;28;20011;-76
2021/04/27 04:59:38;;;;;;;7.88;5.28;;;4.10;99.90;;;;;;4978353;28;20028;-77
2021/04/27 05:02:04;;;;;;;12.63;4.78;;;4.00;99.90;;;;;;5015695;28;20037;-77
2021/04/27 05:04:30;;;;;;;15.40;5.03;;;4.10;99.90;;;;;;4970099;28;20029;-76
2021/04/27 05:07:02;;;;;;;10.55;5.65;;;4.20;99.90;;;;;;5019565;28;20059;-77
2021/04/27 05:09:27;;;;;;;8.73;5.13;;;4.20;99.90;;;;;;4961162;28;20020;-77
2021/04/27 05:11:54;;;;;;;10.13;5.78;;;4.30;99.90;;;;;;4962708;28;20050;-76
2021/04/27 05:14:20;;;;;;;11.18;4.82;;;4.20;99.90;;;;;;4953620;28;20118;-77
2021/04/27 05:16:48;;;;;;;6.00;5.00;;;4.20;99.90;;;;;;4949638;28;20169;-77
2021/04/27 05:19:14;;;;;;;6.65;4.35;;;4.30;99.90;;;;;;4962348;28;20039;-77
2021/04/27 05:21:42;;;;;;;9.45;5.07;;;4.30;99.90;;;;;;4945579;28;20035;-78
2021/04/27 05:24:09;;;;;;;8.65;5.25;;;4.40;99.90;;;;;;5003836;28;20025;-78
2021/04/27 05:26:35;;;;;;;5.25;4.50;;;4.50;99.90;;;;;;5023026;28;20040;-76
2021/04/27 05:29:02;;;;;;;11.48;5.57;;;4.60;99.90;;;;;;4973567;28;20023;-76
2021/04/27 05:31:28;;;;;;;8.68;5.45;;;4.60;99.90;;;;;;4964267;28;20075;-76
2021/04/27 05:33:54;;;;;;;9.88;6.00;;;4.70;99.90;;;;;;4945208;28;20050;-78
2021/04/27 05:36:20;;;;;;;13.23;5.50;;;4.80;99.90;;;;;;4954759;28;20053;-77
2021/04/27 05:38:47;;;;;;;8.18;5.88;;;4.80;99.90;;;;;;4957069;28;20454;-77
2021/04/27 05:41:13;;;;;;;8.40;5.50;;;4.90;99.90;;;;;;4966931;28;20099;-76
2021/04/27 05:43:39;;;;;;;9.52;5.28;;;5.10;99.90;;;;;;4961300;28;20050;-76
2021/04/27 05:46:05;;;;;;;10.80;5.18;;;5.00;99.90;;;;;;5035355;28;20016;-76
2021/04/27 05:48:30;;;;;;;8.73;5.22;;;5.10;99.90;;;;;;5012271;28;20166;-76
2021/04/27 05:51:04;;;;;;;7.97;4.90;;;5.10;99.90;;;;;;4976309;28;20031;-75
2021/04/27 05:53:29;;;;;;;12.70;5.75;;;5.10;99.90;;;;;;4976403;28;20047;-73
2021/04/27 05:55:56;;;;;;;8.07;5.13;;;5.10;99.90;;;;;;4975765;28;20038;-73
2021/04/27 05:58:21;;;;;;;9.75;5.97;;;5.20;99.90;;;;;;4989519;28;20030;-74
2021/04/27 06:00:54;;;;;;;11.63;5.75;;;5.30;99.90;;;;;;4962128;28;20013;-75
2021/04/27 06:03:33;;;;;;;8.32;5.20;;;5.40;99.90;;;;;;4973157;28;20042;-75
2021/04/27 06:05:59;;;;;;;7.00;5.53;;;5.40;99.90;;;;;;5018219;28;20035;-74
2021/04/27 06:08:49;;;;;;;7.43;5.18;;;5.30;99.90;;;;;;4983460;28;20019;-73
2021/04/27 06:11:16;;;;;;;9.52;6.10;;;5.40;99.90;;;;;;4967969;28;20055;-74
2021/04/27 06:13:43;;;;;;;15.60;6.00;;;5.30;99.90;;;;;;4956209;28;20019;-76
2021/04/27 06:16:09;;;;;;;16.83;6.15;;;5.20;99.90;;;;;;5027275;28;20028;-77
2021/04/27 06:18:34;;;;;;;12.68;6.18;;;5.10;99.90;;;;;;4967617;28;20011;-75
2021/04/27 06:21:07;;;;;;;10.07;5.57;;;5.10;99.90;;;;;;4967702;28;20040;-76
2021/04/27 06:23:33;;;;;;;7.53;5.55;;;5.20;99.90;;;;;;4984434;28;20011;-76
2021/04/27 06:25:59;;;;;;;6.45;5.45;;;5.30;99.90;;;;;;4995414;28;20028;-75
2021/04/27 06:28:27;;;;;;;13.75;6.35;;;5.30;99.90;;;;;;4976661;28;20035;-76
2021/04/27 06:30:53;;;;;;;10.02;5.22;;;5.20;99.90;;;;;;5003424;28;20007;-75
2021/04/27 06:33:18;;;;;;;11.23;6.25;;;5.20;99.90;;;;;;4972231;28;20023;-75
2021/04/27 06:35:46;;;;;;;11.25;6.30;;;5.30;99.90;;;;;;4972471;28;20035;-75
2021/04/27 06:38:21;;;;;;;9.35;5.80;;;5.30;99.90;;;;;;4973035;28;20027;-75
2021/04/27 06:40:50;;;;;;;8.85;6.07;;;5.50;99.90;;;;;;4975028;28;20031;-78
2021/04/27 06:43:19;;;;;;;13.45;6.72;;;5.50;99.90;;;;;;4974284;28;20046;-74
2021/04/27 06:45:47;;;;;;;10.65;6.53;;;5.50;99.90;;;;;;4969250;28;20027;-75
2021/04/27 06:48:14;;;;;;;10.40;6.03;;;5.60;99.90;;;;;;4991978;28;20023;-75
2021/04/27 06:50:55;;;;;;;7.03;6.10;;;5.50;99.90;;;;;;4984073;28;20047;-75
2021/04/27 06:53:20;;;;;;;10.10;6.30;;;5.60;99.90;;;;;;4956276;28;20022;-76
2021/04/27 06:55:48;;;;;;;7.85;5.93;;;5.50;99.90;;;;;;4964384;28;20047;-75
2021/04/27 06:58:16;;;;;;;11.77;6.30;;;5.60;99.90;;;;;;4969013;28;20019;-75
2021/04/27 07:00:43;;;;;;;10.35;6.13;;;5.50;99.90;;;;;;4964829;28;20016;-76
2021/04/27 07:03:10;;;;;;;9.65;5.70;;;5.70;99.90;;;;;;4989322;28;20011;-75
2021/04/27 07:05:44;;;;;;;10.23;6.57;;;5.90;99.90;;;;;;4979703;28;20023;-76
2021/04/27 07:08:11;;;;;;;12.25;6.45;;;5.70;99.90;;;;;;5044413;28;20015;-76
2021/04/27 07:10:38;;;;;;;12.10;6.57;;;5.60;99.90;;;;;;4956977;28;20070;-74
2021/04/27 07:13:04;;;;;;;11.38;6.32;;;5.90;99.90;;;;;;4967889;28;20069;-73
2021/04/27 07:15:29;;;;;;;12.52;7.15;;;5.90;99.90;;;;;;4973476;28;20045;-74
2021/04/27 07:17:57;;;;;;;9.95;6.05;;;6.00;99.90;;;;;;4972746;28;20031;-75
2021/04/27 07:20:24;;;;;;;10.35;6.38;;;6.10;99.90;;;;;;4978430;28;20033;-73
2021/04/27 07:22:51;;;;;;;13.43;6.07;;;6.30;99.90;;;;;;4977148;28;20049;-76
2021/04/27 07:25:19;;;;;;;10.40;6.32;;;6.40;99.90;;;;;;4987133;28;20071;-75
2021/04/27 07:27:45;;;;;;;13.95;6.38;;;6.50;99.90;;;;;;5027186;28;20013;-75
2021/04/27 07:30:12;;;;;;;10.68;6.32;;;6.50;99.90;;;;;;5004488;28;20054;-75
2021/04/27 07:32:38;;;;;;;12.85;6.68;;;6.60;99.90;;;;;;5029637;28;20041;-78
2021/04/27 07:35:07;;;;;;;13.48;6.47;;;6.80;99.90;;;;;;5043470;28;20032;-75
2021/04/27 07:37:35;;;;;;;12.15;7.30;;;6.90;99.90;;;;;;4973073;28;20041;-74
2021/04/27 07:40:02;;;;;;;16.38;7.05;;;7.10;99.90;;;;;;4990349;28;20015;-76
2021/04/27 07:42:28;;;;;;;10.55;6.55;;;7.10;99.90;;;;;;5027388;28;20075;-74
2021/04/27 07:44:54;;;;;;;13.50;6.35;;;7.30;99.90;;;;;;4960090;28;20016;-76
2021/04/27 07:47:19;;;;;;;7.50;5.88;;;7.30;99.90;;;;;;4984411;28;20025;-74
2021/04/27 07:49:45;;;;;;;11.90;6.40;;;7.50;99.90;;;;;;4998062;28;20083;-77
2021/04/27 07:52:11;;;;;;;10.07;6.20;;;7.70;99.90;;;;;;5003856;28;20015;-76
2021/04/27 07:54:45;;;;;;;10.52;6.57;;;7.70;99.90;;;;;;4975825;28;20039;-77
2021/04/27 07:57:12;;;;;;;8.50;5.95;;;7.80;99.90;;;;;;4969983;28;20022;-76
2021/04/27 07:59:38;;;;;;;9.30;6.53;;;8.10;99.90;;;;;;4983073;28;20021;-77
2021/04/27 08:02:05;;;;;;;9.82;5.93;;;8.30;99.90;;;;;;4964918;28;20019;-75
2021/04/27 08:04:37;;;;;;;7.88;5.57;;;8.40;99.90;;;;;;4976836;28;20035;-78
2021/04/27 08:07:06;;;;;;;10.43;6.45;;;8.70;99.90;;;;;;4967770;28;20024;-76
2021/04/27 08:09:34;;;;;;;14.85;6.32;;;8.60;99.90;;;;;;4977620;28;20036;-77
2021/04/27 08:12:00;;;;;;;13.38;6.03;;;8.60;99.90;;;;;;4977542;28;20024;-78
2021/04/27 08:14:26;;;;;;;17.02;6.70;;;8.70;99.90;;;;;;4970804;28;20015;-75
2021/04/27 08:16:51;;;;;;;9.23;5.93;;;8.90;99.90;;;;;;5011573;28;20034;-76
2021/04/27 08:19:20;;;;;;;8.77;5.85;;;9.10;99.90;;;;;;4967025;28;20055;-78
2021/04/27 08:21:46;;;;;;;8.85;5.22;;;9.20;99.90;;;;;;4973580;28;20028;-77
2021/04/27 08:24:16;;;;;;;7.53;5.72;;;9.40;99.90;;;;;;4975707;28;20015;-74
2021/04/27 08:26:45;;;;;;;9.35;5.50;;;9.60;99.90;;;;;;4971115;28;20027;-76
2021/04/27 08:29:11;;;;;;;8.68;5.82;;;9.70;99.90;;;;;;4974813;28;20043;-77
2021/04/27 08:31:38;;;;;;;8.38;5.70;;;9.90;99.90;;;;;;5011685;28;20034;-77
2021/04/27 08:34:04;;;;;;;10.85;6.28;;;9.80;99.90;;;;;;4973307;28;20020;-76
2021/04/27 08:36:29;;;;;;;7.47;5.78;;;9.70;99.90;;;;;;4971936;28;20287;-76
2021/04/27 08:38:55;;;;;;;10.32;6.18;;;9.60;99.90;;;;;;4956300;28;20151;-76
2021/04/27 08:41:24;;;;;;;13.07;5.80;;;9.90;99.90;;;;;;4961945;28;20031;-77
2021/04/27 08:43:50;;;;;;;10.40;5.85;;;9.70;99.90;;;;;;4965247;28;20028;-77
2021/04/27 08:46:16;;;;;;;8.13;5.75;;;10.00;99.90;;;;;;4965364;28;20023;-76
2021/04/27 08:48:43;;;;;;;9.95;5.93;;;10.10;99.90;;;;;;4968158;28;20079;-78
2021/04/27 08:51:15;;;;;;;11.40;6.18;;;10.00;99.90;;;;;;4970912;28;20024;-77
2021/04/27 08:53:41;;;;;;;9.45;5.72;;;10.30;99.90;;;;;;4975486;28;20174;-76
2021/04/27 08:56:07;;;;;;;10.18;6.55;;;10.40;99.90;;;;;;4970617;28;20031;-75
2021/04/27 08:58:41;;;;;;;9.20;5.75;;;10.40;99.90;;;;;;4974108;28;20020;-78
2021/04/27 09:01:14;;;;;;;8.40;5.75;;;10.90;99.90;;;;;;4974129;28;20011;-78
2021/04/27 09:03:54;;;;;;;10.55;5.53;;;11.20;99.90;;;;;;4976422;28;20039;-77
2021/04/27 09:06:23;;;;;;;9.45;6.13;;;11.50;99.80;;;;;;4967945;28;20024;-76
2021/04/27 09:08:52;;;;;;;7.55;5.47;;;11.80;97.70;;;;;;4964118;28;20051;-78
2021/04/27 09:11:29;;;;;;;10.20;5.88;;;11.70;95.80;;;;;;4967325;28;20031;-78
2021/04/27 09:14:10;;;;;;;10.00;4.93;;;11.70;95.50;;;;;;4968655;28;20018;-76
2021/04/27 09:16:43;;;;;;;9.00;4.93;;;11.50;94.20;;;;;;4965647;28;20018;-78
2021/04/27 09:19:09;;;;;;;10.32;5.07;;;11.50;94.60;;;;;;4965530;28;20026;-78
2021/04/27 09:21:38;;;;;;;10.75;5.55;;;11.60;93.20;;;;;;4971958;28;20042;-76
2021/04/27 09:24:17;;;;;;;8.55;5.03;;;11.50;92.50;;;;;;4991927;28;20027;-76
2021/04/27 09:26:51;;;;;;;8.38;4.97;;;12.00;93.60;;;;;;4963852;28;20020;-80
2021/04/27 09:29:29;;;;;;;8.98;4.75;;;12.30;90.20;;;;;;4970852;28;20086;-79
2021/04/27 09:31:54;;;;;;;8.38;5.32;;;12.40;89.00;;;;;;4961568;28;20043;-80
2021/04/27 09:34:26;;;;;;;8.57;5.18;;;12.40;90.00;;;;;;4969418;28;20042;-78
2021/04/27 09:36:55;;;;;;;6.60;4.90;;;12.60;87.80;;;;;;4966743;28;20120;-79
2021/04/27 09:39:34;;;;;;;6.63;4.28;;;12.60;86.80;;;;;;4957084;28;20038;-79
2021/04/27 09:42:20;;;;;;;7.35;5.03;;;12.90;86.30;;;;;;4969842;28;20023;-78
2021/04/27 09:44:53;;;;;;;8.80;4.93;;;13.10;81.60;;;;;;4957150;28;20088;-80
2021/04/27 09:47:29;;;;;;;12.55;5.07;;;13.00;85.10;;;;;;5028187;28;20015;-78
2021/04/27 09:50:10;;;;;;;8.60;5.03;;;12.90;83.40;;;;;;4975939;28;20036;-76
2021/04/27 09:52:53;;;;;;;11.57;5.07;;;13.40;79.70;;;;;;5019538;28;20009;-79
2021/04/27 09:55:20;;;;;;;;;;;13.50;81.00;;;;;;4996646;28;20035;-78
2021/04/27 09:57:51;;;;;;;6.72;4.70;;;13.90;75.30;;;;;;4972694;28;19901;-77
2021/04/27 10:00:26;;;;;;;13.52;4.88;;;13.70;76.40;;;;;;4964266;28;20016;-78
2021/04/27 10:02:52;;;;;;;6.05;4.28;;;13.70;75.10;;;;;;4989386;28;20019;-78
2021/04/27 10:05:18;;;;;;;5.57;4.60;;;13.50;75.50;;;;;;4982565;28;20052;-78
2021/04/27 10:07:45;;;;;;;9.88;5.10;;;13.90;74.40;;;;;;4974057;28;20026;-79
2021/04/27 10:10:13;;;;;;;5.85;4.97;;;13.70;75.40;;;;;;4985739;28;20033;-78
2021/04/27 10:12:40;;;;;;;8.20;4.75;;;13.50;74.20;;;;;;4975523;28;20018;-79
2021/04/27 10:15:07;;;;;;;8.40;5.55;;;13.70;75.90;;;;;;4951497;28;20019;-78
2021/04/27 10:17:34;;;;;;;6.60;4.60;;;13.90;73.00;;;;;;4957567;29;20030;-78
2021/04/27 10:20:03;;;;;;;9.25;5.07;;;13.80;72.80;;;;;;4968736;28;20116;-77
2021/04/27 10:22:28;;;;;;;6.53;4.55;;;13.60;73.40;;;;;;4973431;28;20039;-77
2021/04/27 10:24:58;;;;;;;9.18;4.82;;;13.70;73.70;;;;;;4972675;28;20062;-79
2021/04/27 10:27:30;;;;;;;6.57;4.72;;;14.00;70.40;;;;;;4972745;28;20022;-78
2021/04/27 10:30:16;;;;;;;6.13;4.60;;;14.10;70.70;;;;;;4967168;28;20023;-79
2021/04/27 10:33:06;;;;;;;7.57;4.80;;;14.60;69.90;;;;;;4968515;28;20134;-78
2021/04/27 10:35:36;;;;;;;15.05;5.68;;;14.60;68.80;;;;;;4963189;28;20066;-77
2021/04/27 10:38:18;;;;;;;6.47;4.63;;;14.80;67.80;;;;;;4970278;28;20032;-77
2021/04/27 10:40:53;;;;;;;9.00;4.70;;;14.70;68.20;;;;;;4999115;28;20031;-78
2021/04/27 10:43:26;;;;;;;7.55;5.03;;;14.90;66.00;;;;;;4972377;28;20257;-78
2021/04/27 10:45:56;;;;;;;8.00;5.30;;;14.80;64.30;;;;;;4972172;28;20032;-77
2021/04/27 10:48:44;;;;;;;7.95;4.47;;;15.20;65.20;;;;;;4961614;28;20066;-77
2021/04/27 10:51:23;;;;;;;8.45;4.82;;;15.40;61.90;;;;;;4973198;28;20039;-80
2021/04/27 10:54:16;;;;;;;9.07;4.63;;;16.00;60.20;;;;;;4962302;28;20042;-80
2021/04/27 10:56:48;;;;;;;7.43;4.53;;;15.90;56.80;;;;;;4967634;28;20104;-77
2021/04/27 10:59:25;;;;;;;4.80;4.25;;;16.00;59.80;;;;;;4964516;28;20011;-78
2021/04/27 11:02:31;;;;;;;7.18;4.65;;;16.20;58.50;;;;;;4945253;28;20023;-77
2021/04/27 11:05:20;;;;;;;9.38;5.15;;;15.80;56.80;;;;;;4978163;28;20022;-80
2021/04/27 11:07:49;;;;;;;6.15;4.53;;;16.10;56.30;;;;;;4988442;28;20087;-77
2021/04/27 11:10:15;;;;;;;7.70;4.53;;;15.90;54.70;;;;;;4970622;28;20055;-77
2021/04/27 11:12:53;;;;;;;7.18;4.50;;;16.00;56.00;;;;;;4960112;28;20096;-79
2021/04/27 11:15:19;;;;;;;7.97;4.40;;;16.00;54.70;;;;;;4982854;28;20050;-76
2021/04/27 11:18:04;;;;;;;11.43;4.25;;;16.60;55.50;;;;;;4965843;28;20027;-79
2021/04/27 11:21:09;;;;;;;4.50;3.80;;;16.50;51.50;;;;;;4966610;28;20030;-79
2021/04/27 11:23:41;;;;;;;9.77;4.00;;;16.50;53.00;;;;;;4965787;28;20024;-80
2021/04/27 11:26:32;;;;;;;11.93;4.60;;;16.40;51.70;;;;;;4964728;28;20019;-77
2021/04/27 11:29:06;;;;;;;9.40;4.35;;;16.40;51.60;;;;;;4969119;28;20031;-80
2021/04/27 11:31:59;;;;;;;11.63;4.40;;;16.90;51.30;;;;;;4980456;28;20011;-78
2021/04/27 11:34:26;;;;;;;7.82;4.30;;;17.50;50.40;;;;;;4965968;28;20034;-78
2021/04/27 11:36:52;;;;;;;10.25;4.65;;;17.10;50.20;;;;;;4960454;28;20027;-77
2021/04/27 11:39:23;;;;;;;7.95;4.80;;;17.00;51.20;;;;;;4991336;28;20054;-79
2021/04/27 11:41:53;;;;;;;7.00;3.78;;;17.40;49.40;;;;;;5003102;28;20025;-76
2021/04/27 11:44:21;;;;;;;5.55;4.03;;;17.10;48.30;;;;;;4941485;28;20042;-77
2021/04/27 11:47:04;;;;;;;6.03;4.07;;;17.10;46.90;;;;;;4961568;28;20274;-77
2021/04/27 11:49:58;;;;;;;15.02;4.50;;;16.80;48.80;;;;;;4972772;28;20023;-76
2021/04/27 11:52:49;;;;;;;9.80;4.15;;;16.90;52.10;;;;;;4963650;28;20019;-78
2021/04/27 11:55:32;;;;;;;9.52;4.78;;;17.40;50.20;;;;;;4960260;28;20099;-78
2021/04/27 11:58:24;;;;;;;6.55;4.43;;;17.30;48.80;;;;;;4963420;28;20086;-75
2021/04/27 12:01:00;;;;;;;6.90;4.30;;;17.20;49.20;;;;;;4954021;28;20126;-76
2021/04/27 12:03:47;;;;;;;8.05;4.05;;;17.00;49.30;;;;;;4973473;28;20087;-77
2021/04/27 12:06:16;;;;;;;6.45;4.63;;;17.40;49.90;;;;;;4960366;28;20020;-77
2021/04/27 12:08:54;;;;;;;7.97;4.60;;;17.00;47.60;;;;;;4953451;28;20099;-76
2021/04/27 12:11:32;;;;;;;6.00;4.05;;;17.00;47.80;;;;;;4955155;28;20043;-78
2021/04/27 12:14:18;;;;;;;6.00;4.43;;;17.00;48.20;;;;;;4946724;29;20023;-77
2021/04/27 12:16:49;;;;;;;6.88;4.90;;;17.30;48.80;;;;;;4958224;28;20039;-80
2021/04/27 12:19:22;;;;;;;7.63;4.47;;;17.40;48.50;;;;;;4952607;28;20035;-78
2021/04/27 12:22:02;;;;;;;8.93;4.30;;;17.50;48.20;;;;;;4964827;28;20011;-80
2021/04/27 12:24:30;;;;;;;7.40;4.57;;;17.90;48.00;;;;;;4955032;28;20058;-73
2021/04/27 12:27:04;;;;;;;7.75;4.78;;;17.90;48.20;;;;;;4954229;28;20076;-78
2021/04/27 12:29:30;;;;;;;9.85;4.63;;;17.60;45.70;;;;;;4962365;28;20106;-77
2021/04/27 12:32:02;;;;;;;5.53;4.20;;;17.10;46.60;;;;;;4945041;28;20055;-78
2021/04/27 12:34:27;;;;;;;6.95;4.95;;;17.40;45.80;;;;;;4946391;29;20111;-77
2021/04/27 12:36:53;;;;;;;7.40;4.75;;;17.00;46.90;;;;;;4948386;28;20027;-76
2021/04/27 12:39:22;;;;;;;6.85;4.63;;;16.90;46.00;;;;;;4948054;28;20128;-74
2021/04/27 12:41:48;;;;;;;7.20;4.68;;;17.00;47.50;;;;;;4955602;28;20031;-74
2021/04/27 12:44:30;;;;;;;8.63;4.72;;;17.50;48.40;;;;;;4944806;28;20111;-74
2021/04/27 12:47:02;;;;;;;8.98;4.20;;;18.10;46.50;;;;;;4938720;28;20139;-75
2021/04/27 12:49:30;;;;;;;10.03;4.93;;;17.90;45.50;;;;;;4942703;28;20020;-75
2021/04/27 12:52:06;;;;;;;6.40;4.68;;;17.20;44.60;;;;;;4951538;28;20032;-76
2021/04/27 12:54:31;;;;;;;5.20;3.90;;;17.00;45.40;;;;;;4940290;28;20044;-76
2021/04/27 12:57:18;;;;;;;8.63;4.97;;;17.40;46.00;;;;;;4953459;28;20106;-80
2021/04/27 12:59:45;;;;;;;5.63;4.50;;;17.70;45.10;;;;;;4962497;29;20039;-76
2021/04/27 13:02:15;;;;;;;10.93;4.90;;;18.00;45.30;;;;;;4952602;28;20570;-75
2021/04/27 13:04:58;;;;;;;9.95;4.80;;;18.00;44.90;;;;;;4952418;28;20059;-73